createdAt,value
2023-04-25T00:00:59.437Z,11.28
2023-04-25T00:03:27.394Z,11.22
2023-04-25T00:05:57.837Z,11.23
2023-04-25T00:08:26.175Z,11.24
2023-04-25T00:10:53.636Z,11.18
2023-04-25T00:13:22.614Z,11.17
2023-04-25T00:15:50.136Z,11.11
2023-04-25T00:18:18.926Z,11.08
2023-04-25T00:20:47.576Z,11.01
2023-04-25T00:23:19.171Z,10.91
2023-04-25T00:25:50.762Z,10.91
2023-04-25T00:28:18.724Z,10.92
2023-04-25T00:30:46.397Z,10.90
2023-04-25T00:33:13.874Z,10.95
2023-04-25T00:35:41.903Z,10.83
2023-04-25T00:38:09.486Z,10.80
2023-04-25T00:40:37.131Z,10.66
2023-04-25T00:43:05.412Z,10.60
2023-04-25T00:45:38.933Z,10.57
2023-04-25T00:48:07.206Z,10.63
2023-04-25T00:50:37.005Z,10.63
2023-04-25T00:53:04.727Z,10.68
2023-04-25T00:55:32.563Z,10.71
2023-04-25T00:58:00.126Z,10.78
2023-04-25T01:00:27.717Z,10.78
2023-04-25T01:02:55.476Z,10.72
2023-04-25T01:05:23.303Z,10.67
2023-04-25T01:07:51.652Z,10.64
2023-04-25T01:10:19.247Z,10.60
2023-04-25T01:12:48.304Z,10.59
2023-04-25T01:15:15.986Z,10.64
2023-04-25T01:17:45.299Z,10.66
2023-04-25T01:20:15.061Z,10.60
2023-04-25T01:22:44.368Z,10.56
2023-04-25T01:25:12.334Z,10.58
2023-04-25T01:27:41.539Z,10.54
2023-04-25T01:30:10.143Z,10.54
2023-04-25T01:32:39.784Z,10.56
2023-04-25T01:35:10.485Z,10.55
2023-04-25T01:37:42.471Z,10.52
2023-04-25T01:40:12.881Z,10.54
2023-04-25T01:42:43.308Z,10.52
2023-04-25T01:45:12.381Z,10.51
2023-04-25T01:47:41.198Z,10.52
2023-04-25T01:50:09.767Z,10.47
2023-04-25T01:52:38.833Z,10.48
2023-04-25T01:55:06.948Z,10.51
2023-04-25T01:57:36.942Z,10.45
2023-04-25T02:00:10.069Z,10.46
2023-04-25T02:02:40.859Z,10.45
2023-04-25T02:05:21.866Z,10.45
2023-04-25T02:07:49.852Z,10.42
2023-04-25T02:10:17.418Z,10.41
2023-04-25T02:12:55.898Z,10.33
2023-04-25T02:15:58.921Z,10.25
2023-04-25T02:18:27.452Z,10.27
2023-04-25T02:20:55.459Z,10.18
2023-04-25T02:23:23.638Z,10.21
2023-04-25T02:25:52.045Z,10.15
2023-04-25T02:28:19.624Z,10.19
2023-04-25T02:30:47.159Z,10.18
2023-04-25T02:33:14.789Z,10.11
2023-04-25T02:35:42.255Z,10.03
2023-04-25T02:38:09.679Z,9.91
2023-04-25T02:40:37.285Z,9.92
2023-04-25T02:43:04.932Z,9.89
2023-04-25T02:45:33.099Z,9.97
2023-04-25T02:48:00.605Z,10.03
2023-04-25T02:50:28.277Z,10.10
2023-04-25T02:52:55.955Z,10.12
2023-04-25T02:55:28.775Z,10.09
2023-04-25T02:57:57.679Z,10.21
2023-04-25T03:00:37.247Z,10.22
2023-04-25T03:03:05.048Z,10.22
2023-04-25T03:05:32.809Z,10.27
2023-04-25T03:08:00.556Z,10.23
2023-04-25T03:10:29.390Z,10.21
2023-04-25T03:13:00.778Z,10.25
2023-04-25T03:15:28.368Z,10.21
2023-04-25T03:17:55.916Z,10.18
2023-04-25T03:20:24.785Z,10.18
2023-04-25T03:22:52.341Z,10.06
2023-04-25T03:25:20.031Z,10.06
2023-04-25T03:27:47.759Z,10.19
2023-04-25T03:30:15.500Z,10.14
2023-04-25T03:32:45.105Z,10.21
2023-04-25T03:35:16.913Z,10.13
2023-04-25T03:37:47.561Z,10.01
2023-04-25T03:40:20.612Z,10.06
2023-04-25T03:43:06.562Z,10.20
2023-04-25T03:45:35.258Z,10.29
2023-04-25T03:48:02.935Z,10.39
2023-04-25T03:50:31.689Z,10.46
2023-04-25T03:52:59.189Z,10.55
2023-04-25T03:55:29.607Z,10.57
2023-04-25T03:57:59.399Z,10.65
2023-04-25T04:00:26.973Z,10.79
2023-04-25T04:02:54.744Z,10.82
2023-04-25T04:05:22.396Z,10.74
2023-04-25T04:07:55.695Z,10.76
2023-04-25T04:10:23.898Z,10.68
2023-04-25T04:12:51.377Z,10.63
2023-04-25T04:15:19.348Z,10.59
2023-04-25T04:17:49.504Z,10.43
2023-04-25T04:20:17.104Z,10.53
2023-04-25T04:22:44.728Z,10.60
2023-04-25T04:25:14.887Z,10.75
2023-04-25T04:28:14.780Z,10.80
2023-04-25T04:31:18.004Z,10.87
2023-04-25T04:33:46.692Z,10.95
2023-04-25T04:36:15.305Z,11.04
2023-04-25T04:38:43.416Z,11.22
2023-04-25T04:41:20.665Z,11.37
2023-04-25T04:43:57.033Z,11.50
2023-04-25T04:46:33.198Z,11.59
2023-04-25T04:49:22.219Z,11.69
2023-04-25T04:52:25.013Z,11.81
2023-04-25T04:55:23.274Z,11.77
2023-04-25T04:58:11.024Z,11.73
2023-04-25T05:00:53.977Z,11.90
2023-04-25T05:03:54.777Z,11.90
2023-04-25T05:06:48.620Z,11.98
2023-04-25T05:09:28.285Z,11.95
2023-04-25T05:12:18.848Z,12.09
2023-04-25T05:14:54.742Z,12.08
2023-04-25T05:17:41.162Z,11.75
2023-04-25T05:20:20.870Z,11.55
2023-04-25T05:23:16.513Z,11.61
2023-04-25T05:26:22.955Z,11.51
2023-04-25T05:29:06.717Z,11.69
2023-04-25T05:31:40.369Z,11.73
2023-04-25T05:34:14.232Z,11.72
2023-04-25T05:36:50.695Z,11.89
2023-04-25T05:39:18.589Z,11.71
2023-04-25T05:42:11.874Z,11.93
2023-04-25T05:45:01.356Z,11.99
2023-04-25T05:47:52.052Z,12.23
2023-04-25T05:50:24.434Z,12.29
2023-04-25T05:53:24.359Z,12.22
2023-04-25T05:56:00.897Z,12.32
2023-04-25T05:58:30.175Z,12.40
2023-04-25T06:00:59.303Z,12.52
2023-04-25T06:03:27.211Z,12.57
2023-04-25T06:05:55.239Z,12.68
2023-04-25T06:08:23.465Z,12.84
2023-04-25T06:10:51.053Z,12.82
2023-04-25T06:13:19.873Z,12.91
2023-04-25T06:15:47.580Z,12.82
2023-04-25T06:18:15.219Z,12.77
2023-04-25T06:20:42.785Z,12.75
2023-04-25T06:23:11.040Z,12.68
2023-04-25T06:25:53.216Z,12.67
2023-04-25T06:28:23.131Z,12.72
2023-04-25T06:30:50.708Z,12.61
2023-04-25T06:33:21.315Z,12.69
2023-04-25T06:35:49.773Z,12.76
2023-04-25T06:38:20.376Z,12.77
2023-04-25T06:40:52.375Z,12.68
2023-04-25T06:43:20.585Z,12.80
2023-04-25T06:45:48.628Z,12.92
2023-04-25T06:48:16.781Z,12.91
2023-04-25T06:50:44.306Z,13.08
2023-04-25T06:53:13.307Z,13.05
2023-04-25T06:55:43.289Z,13.22
2023-04-25T06:58:23.375Z,13.31
2023-04-25T07:01:23.491Z,13.24
2023-04-25T07:03:51.490Z,13.29
2023-04-25T07:06:20.602Z,13.35
2023-04-25T07:08:48.539Z,13.32
2023-04-25T07:11:16.689Z,13.48
2023-04-25T07:13:44.514Z,13.61
2023-04-25T07:16:12.074Z,13.60
2023-04-25T07:18:39.630Z,13.78
2023-04-25T07:21:07.244Z,13.85
2023-04-25T07:23:36.141Z,13.88
2023-04-25T07:26:10.003Z,13.75
2023-04-25T07:28:43.158Z,13.92
2023-04-25T07:31:10.760Z,14.02
2023-04-25T07:33:38.218Z,14.02
2023-04-25T07:36:06.217Z,14.03
2023-04-25T07:38:34.113Z,14.01
2023-04-25T07:41:02.128Z,14.05
2023-04-25T07:43:29.884Z,14.16
2023-04-25T07:46:00.097Z,14.22
2023-04-25T07:48:30.672Z,14.27
2023-04-25T07:50:58.293Z,14.38
2023-04-25T07:53:25.743Z,14.33
2023-04-25T07:56:01.304Z,14.36
2023-04-25T07:58:32.302Z,14.40
2023-04-25T08:01:02.582Z,14.09
2023-04-25T08:03:46.602Z,14.06
2023-04-25T08:06:37.905Z,14.22
2023-04-25T08:09:11.088Z,14.28
2023-04-25T08:11:41.227Z,14.34
2023-04-25T08:14:13.258Z,14.61
2023-04-25T08:16:43.190Z,14.92
2023-04-25T08:19:12.073Z,15.15
2023-04-25T08:21:39.598Z,15.32
2023-04-25T08:24:12.054Z,15.57
2023-04-25T08:26:42.291Z,15.84
2023-04-25T08:29:12.616Z,15.63
2023-04-25T08:31:42.176Z,15.66
2023-04-25T08:34:10.853Z,15.84
2023-04-25T08:36:43.597Z,15.95
2023-04-25T08:39:29.875Z,15.90
2023-04-25T08:42:29.075Z,15.66
2023-04-25T08:44:58.003Z,15.59
2023-04-25T08:47:31.244Z,15.71
2023-04-25T08:50:00.841Z,15.77
2023-04-25T08:52:32.063Z,15.85
2023-04-25T08:55:02.536Z,16.06
2023-04-25T08:57:32.612Z,16.14
2023-04-25T09:00:02.195Z,16.12
2023-04-25T09:02:30.784Z,15.96
2023-04-25T09:04:58.698Z,16.05
2023-04-25T09:07:26.868Z,16.28
2023-04-25T09:09:55.655Z,16.48
2023-04-25T09:12:23.909Z,16.32
2023-04-25T09:15:08.011Z,16.33
2023-04-25T09:18:00.083Z,16.33
2023-04-25T09:21:00.737Z,16.23
2023-04-25T09:23:31.118Z,16.19
2023-04-25T09:25:58.897Z,16.38
2023-04-25T09:28:30.133Z,16.47
2023-04-25T09:30:59.937Z,16.72
2023-04-25T09:33:36.860Z,16.80
2023-04-25T09:36:10.333Z,17.01
2023-04-25T09:39:02.319Z,17.09
2023-04-25T09:41:33.698Z,17.21
2023-04-25T09:44:03.644Z,16.99
2023-04-25T09:46:37.996Z,17.00
2023-04-25T09:49:09.639Z,17.07
2023-04-25T09:52:03.399Z,17.20
2023-04-25T09:54:54.253Z,17.16
2023-04-25T09:57:30.661Z,17.37
2023-04-25T10:00:01.479Z,17.46
2023-04-25T10:02:46.084Z,17.38
2023-04-25T10:05:25.898Z,17.36
2023-04-25T10:07:56.441Z,17.29
2023-04-25T10:10:30.147Z,17.12
2023-04-25T10:12:59.539Z,17.06
2023-04-25T10:15:27.340Z,17.07
2023-04-25T10:17:55.528Z,17.22
2023-04-25T10:20:23.600Z,17.07
2023-04-25T10:22:55.219Z,17.04
2023-04-25T10:25:24.275Z,17.23
2023-04-25T10:27:55.059Z,17.10
2023-04-25T10:30:22.569Z,17.07
2023-04-25T10:32:53.572Z,17.02
2023-04-25T10:35:29.953Z,16.94
2023-04-25T10:38:11.006Z,17.08
2023-04-25T10:40:39.230Z,17.16
2023-04-25T10:43:44.556Z,17.22
2023-04-25T10:46:32.318Z,17.25
2023-04-25T10:49:02.552Z,17.42
2023-04-25T10:51:51.673Z,17.71
2023-04-25T10:54:26.192Z,17.91
2023-04-25T10:56:54.374Z,17.71
2023-04-25T10:59:26.297Z,17.88
2023-04-25T11:01:55.993Z,18.13
2023-04-25T11:04:24.954Z,18.12
2023-04-25T11:07:08.483Z,17.96
2023-04-25T11:09:39.984Z,17.66
2023-04-25T11:12:10.593Z,17.46
2023-04-25T11:17:06.889Z,17.12
2023-04-25T11:19:34.543Z,17.24
2023-04-25T11:22:04.085Z,17.27
2023-04-25T11:24:32.293Z,17.36
2023-04-25T11:27:01.112Z,17.50
2023-04-25T11:29:30.425Z,17.45
2023-04-25T11:31:59.394Z,17.49
2023-04-25T11:34:27.570Z,17.48
2023-04-25T11:36:55.234Z,17.59
2023-04-25T11:39:22.986Z,17.74
2023-04-25T11:41:51.475Z,17.96
2023-04-25T11:44:20.124Z,18.14
2023-04-25T11:46:47.821Z,18.12
2023-04-25T11:49:16.413Z,18.02
2023-04-25T11:51:45.781Z,17.92
2023-04-25T11:54:14.089Z,17.92
2023-04-25T11:56:46.323Z,17.90
2023-04-25T11:59:14.502Z,17.81
2023-04-25T12:01:48.733Z,17.66
2023-04-25T12:04:16.567Z,17.68
2023-04-25T12:06:49.986Z,17.82
2023-04-25T12:09:22.346Z,17.78
2023-04-25T12:11:54.478Z,17.69
2023-04-25T12:14:28.128Z,17.82
2023-04-25T12:16:58.858Z,17.97
2023-04-25T12:19:27.566Z,17.90
2023-04-25T12:21:58.675Z,17.81
2023-04-25T12:24:28.914Z,18.05
2023-04-25T12:27:09.299Z,18.16
2023-04-25T12:29:49.075Z,18.18
2023-04-25T12:32:18.185Z,18.25
2023-04-25T12:34:46.181Z,18.14
2023-04-25T12:37:14.561Z,18.11
2023-04-25T12:39:42.313Z,18.30
2023-04-25T12:42:12.932Z,18.31
2023-04-25T12:44:41.683Z,18.05
2023-04-25T12:47:09.427Z,18.29
2023-04-25T12:49:37.101Z,18.53
2023-04-25T12:52:04.799Z,18.63
2023-04-25T12:54:32.628Z,18.73
2023-04-25T12:57:00.308Z,18.59
2023-04-25T12:59:28.553Z,18.42
2023-04-25T13:01:56.159Z,18.25
2023-04-25T13:04:23.766Z,18.65
2023-04-25T13:06:51.356Z,18.65
2023-04-25T13:09:18.835Z,18.53
2023-04-25T13:11:47.101Z,18.53
2023-04-25T13:14:14.641Z,18.37
2023-04-25T13:16:42.420Z,18.21
2023-04-25T13:19:12.499Z,18.34
2023-04-25T13:21:40.293Z,18.33
2023-04-25T13:24:08.082Z,18.12
2023-04-25T13:26:37.439Z,17.95
2023-04-25T13:29:05.143Z,17.96
2023-04-25T13:31:32.997Z,18.08
2023-04-25T13:34:00.547Z,18.04
2023-04-25T13:36:28.938Z,18.14
2023-04-25T13:38:56.461Z,17.98
2023-04-25T13:41:24.404Z,18.04
2023-04-25T13:43:53.073Z,18.08
2023-04-25T13:46:40.697Z,17.91
2023-04-25T13:49:12.778Z,17.82
2023-04-25T13:51:41.916Z,17.72
2023-04-25T13:54:09.771Z,17.60
2023-04-25T13:56:37.435Z,17.56
2023-04-25T13:59:04.974Z,17.58
2023-04-25T14:01:35.462Z,17.59
2023-04-25T14:04:07.224Z,17.80
2023-04-25T14:06:36.493Z,17.94
2023-04-25T14:09:05.599Z,17.85
2023-04-25T14:11:33.841Z,17.69
2023-04-25T14:14:01.439Z,17.65
2023-04-25T14:16:29.891Z,17.46
2023-04-25T14:18:57.600Z,17.36
2023-04-25T14:21:26.214Z,17.29
2023-04-25T14:23:54.170Z,17.26
2023-04-25T14:26:22.012Z,17.03
2023-04-25T14:28:49.642Z,16.94
2023-04-25T14:31:17.172Z,16.98
2023-04-25T14:33:44.896Z,16.98
2023-04-25T14:36:12.450Z,16.97
2023-04-25T14:38:39.991Z,16.92
2023-04-25T14:41:07.637Z,17.00
2023-04-25T14:43:35.226Z,16.87
2023-04-25T14:46:03.193Z,16.79
2023-04-25T14:48:32.303Z,16.73
2023-04-25T14:51:01.211Z,16.69
2023-04-25T14:53:28.878Z,16.81
2023-04-25T14:55:56.458Z,16.83
2023-04-25T14:58:24.164Z,16.89
2023-04-25T15:00:52.027Z,17.25
2023-04-25T15:03:21.120Z,17.63
2023-04-25T15:05:48.738Z,17.82
2023-04-25T15:08:16.338Z,18.26
2023-04-25T15:10:46.401Z,18.42
2023-04-25T15:13:14.163Z,18.88
2023-04-25T15:15:42.027Z,18.95
2023-04-25T15:18:09.661Z,19.06
2023-04-25T15:20:37.291Z,19.15
2023-04-25T15:23:05.996Z,19.10
2023-04-25T15:25:33.599Z,19.18
2023-04-25T15:28:01.115Z,18.98
2023-04-25T15:30:28.795Z,18.83
2023-04-25T15:32:56.420Z,18.71
2023-04-25T15:35:23.987Z,18.97
2023-04-25T15:37:52.330Z,19.18
2023-04-25T15:40:20.161Z,19.18
2023-04-25T15:42:51.975Z,18.77
2023-04-25T15:45:22.451Z,18.92
2023-04-25T15:47:51.617Z,18.99
2023-04-25T15:50:19.568Z,18.96
2023-04-25T15:52:49.027Z,18.37
2023-04-25T15:55:17.585Z,17.77
2023-04-25T15:57:45.114Z,17.47
2023-04-25T16:00:15.605Z,17.32
2023-04-25T16:02:44.635Z,16.98
2023-04-25T16:05:14.646Z,17.03
2023-04-25T16:07:44.853Z,16.75
2023-04-25T16:10:13.525Z,16.56
2023-04-25T16:12:41.288Z,16.40
2023-04-25T16:15:09.435Z,16.21
2023-04-25T16:17:37.913Z,16.17
2023-04-25T16:20:10.390Z,16.07
2023-04-25T16:22:40.409Z,15.95
2023-04-25T16:25:08.683Z,15.82
2023-04-25T16:27:38.926Z,15.81
2023-04-25T16:30:08.453Z,15.73
2023-04-25T16:32:36.570Z,15.69
2023-04-25T16:35:04.261Z,15.64
2023-04-25T16:37:32.100Z,15.55
2023-04-25T16:39:59.697Z,15.49
2023-04-25T16:42:27.341Z,15.39
2023-04-25T16:44:54.886Z,15.37
2023-04-25T16:47:22.694Z,15.31
2023-04-25T16:49:50.921Z,15.30
2023-04-25T16:52:20.727Z,15.24
2023-04-25T16:54:48.247Z,15.15
2023-04-25T16:57:15.869Z,15.17
2023-04-25T16:59:43.388Z,15.16
2023-04-25T17:02:13.281Z,15.18
2023-04-25T17:04:41.765Z,15.14
2023-04-25T17:07:09.733Z,15.15
2023-04-25T17:09:37.339Z,15.11
2023-04-25T17:12:07.387Z,15.11
2023-04-25T17:14:36.154Z,15.05
2023-04-25T17:17:03.882Z,15.06
2023-04-25T17:19:32.423Z,15.09
2023-04-25T17:22:00.227Z,15.11
2023-04-25T17:24:27.764Z,15.09
2023-04-25T17:26:57.228Z,15.08
2023-04-25T17:29:24.806Z,15.03
2023-04-25T17:31:53.583Z,15.01
2023-04-25T17:34:22.174Z,15.02
2023-04-25T17:36:50.125Z,15.04
2023-04-25T17:39:17.866Z,15.01
2023-04-25T17:41:45.583Z,15.03
2023-04-25T17:44:13.669Z,15.01
2023-04-25T17:46:41.594Z,15.00
2023-04-25T17:49:09.083Z,15.01
2023-04-25T17:51:37.687Z,15.00
2023-04-25T17:54:05.223Z,15.01
2023-04-25T17:56:37.895Z,15.02
2023-04-25T17:59:05.472Z,14.98
2023-04-25T18:01:33.196Z,14.96
2023-04-25T18:04:01.562Z,14.89
2023-04-25T18:06:29.425Z,14.85
2023-04-25T18:08:59.849Z,14.84
2023-04-25T18:11:27.828Z,14.81
2023-04-25T18:13:56.156Z,14.83
2023-04-25T18:16:23.772Z,14.76
2023-04-25T18:18:53.630Z,14.75
2023-04-25T18:21:21.859Z,14.71
2023-04-25T18:23:49.359Z,14.69
2023-04-25T18:26:16.821Z,14.65
2023-04-25T18:28:44.449Z,14.66
2023-04-25T18:31:12.146Z,14.67
2023-04-25T18:33:39.687Z,14.62
2023-04-25T18:36:07.492Z,14.62
2023-04-25T18:38:49.781Z,14.61
2023-04-25T18:41:47.910Z,14.59
2023-04-25T18:44:05.496Z,14.57
2023-04-25T18:46:33.641Z,14.55
2023-04-25T18:49:01.752Z,14.57
2023-04-25T18:51:30.467Z,14.59
2023-04-25T18:53:59.007Z,14.59
2023-04-25T18:56:27.554Z,14.55
2023-04-25T18:58:56.411Z,14.53
2023-04-25T19:01:25.625Z,14.53
2023-04-25T19:03:57.214Z,14.48
2023-04-25T19:06:29.045Z,14.47
2023-04-25T19:08:57.688Z,14.46
2023-04-25T19:11:25.309Z,14.48
2023-04-25T19:13:55.607Z,14.46
2023-04-25T19:16:23.854Z,14.49
2023-04-25T19:18:54.881Z,14.44
2023-04-25T19:21:22.841Z,14.41
2023-04-25T19:23:53.003Z,14.33
2023-04-25T19:26:21.091Z,14.33
2023-04-25T19:29:07.325Z,14.31
2023-04-25T19:31:39.784Z,14.32
2023-04-25T19:34:09.217Z,14.26
2023-04-25T19:36:41.533Z,14.19
2023-04-25T19:39:09.155Z,14.17
2023-04-25T19:41:38.883Z,14.14
2023-04-25T19:44:08.520Z,14.11
2023-04-25T19:46:37.535Z,14.10
2023-04-25T19:49:08.878Z,14.10
2023-04-25T19:51:37.397Z,14.08
2023-04-25T19:54:05.587Z,14.02
2023-04-25T19:56:33.890Z,14.01
2023-04-25T19:59:01.550Z,14.01
2023-04-25T20:01:29.476Z,13.96
2023-04-25T20:03:57.021Z,13.96
2023-04-25T20:06:24.842Z,13.94
2023-04-25T20:08:55.975Z,13.94
2023-04-25T20:11:23.911Z,13.87
2023-04-25T20:13:51.770Z,13.81
2023-04-25T20:16:21.223Z,13.78
2023-04-25T20:18:49.257Z,13.73
2023-04-25T20:21:17.140Z,13.68
2023-04-25T20:23:45.430Z,13.69
2023-04-25T20:26:12.975Z,13.70
2023-04-25T20:28:41.921Z,13.59
2023-04-25T20:31:11.021Z,13.56
2023-04-25T20:33:38.916Z,13.56
2023-04-25T20:36:06.519Z,13.53
2023-04-25T20:38:34.150Z,13.51
2023-04-25T20:41:01.774Z,13.50
2023-04-25T20:43:30.335Z,13.45
2023-04-25T20:45:58.851Z,13.48
2023-04-25T20:48:27.259Z,13.50
2023-04-25T20:50:54.895Z,13.52
2023-04-25T20:53:22.452Z,13.55
2023-04-25T20:55:50.103Z,13.53
2023-04-25T20:58:17.673Z,13.55
2023-04-25T21:00:47.512Z,13.51
2023-04-25T21:03:16.231Z,13.47
2023-04-25T21:05:43.935Z,13.46
2023-04-25T21:08:11.565Z,13.47
2023-04-25T21:10:39.412Z,13.45
2023-04-25T21:13:07.573Z,13.48
2023-04-25T21:15:35.273Z,13.49
2023-04-25T21:18:02.804Z,13.43
2023-04-25T21:20:30.577Z,13.26
2023-04-25T21:22:59.302Z,13.09
2023-04-25T21:25:31.410Z,12.95
2023-04-25T21:28:00.441Z,12.97
2023-04-25T21:30:29.078Z,12.98
2023-04-25T21:32:56.978Z,12.93
2023-04-25T21:35:24.924Z,12.89
2023-04-25T21:37:52.702Z,12.91
2023-04-25T21:40:20.884Z,12.92
2023-04-25T21:42:53.607Z,12.90
2023-04-25T21:45:21.412Z,12.84
2023-04-25T21:47:50.725Z,12.92
2023-04-25T21:50:19.540Z,12.86
2023-04-25T21:52:48.439Z,12.66
2023-04-25T21:55:17.030Z,12.66
2023-04-25T21:57:44.842Z,12.82
2023-04-25T22:00:24.870Z,12.70
2023-04-25T22:02:53.050Z,12.63
2023-04-25T22:05:22.488Z,12.73
2023-04-25T22:07:51.507Z,12.70
2023-04-25T22:10:20.932Z,12.66
2023-04-25T22:12:51.068Z,12.64
2023-04-25T22:15:19.541Z,12.73
2023-04-25T22:17:57.904Z,12.59
2023-04-25T22:21:00.119Z,12.51
2023-04-25T22:23:33.652Z,12.56
2023-04-25T22:26:03.003Z,12.53
2023-04-25T22:28:33.732Z,12.43
2023-04-25T22:31:03.239Z,12.47
2023-04-25T22:33:33.930Z,12.58
2023-04-25T22:36:02.741Z,12.68
2023-04-25T22:38:31.996Z,12.80
2023-04-25T22:41:00.691Z,12.82
2023-04-25T22:43:29.936Z,12.86
2023-04-25T22:45:58.983Z,12.84
2023-04-25T22:48:26.508Z,12.90
2023-04-25T22:51:05.268Z,12.89
2023-04-25T22:53:34.311Z,12.90
2023-04-25T22:56:02.044Z,12.87
2023-04-25T22:58:30.037Z,12.79
2023-04-25T23:00:57.597Z,12.78
2023-04-25T23:03:25.289Z,12.75
2023-04-25T23:05:53.072Z,12.72
2023-04-25T23:08:20.968Z,12.77
2023-04-25T23:10:48.631Z,12.73
2023-04-25T23:13:16.710Z,12.73
2023-04-25T23:15:44.159Z,12.75
2023-04-25T23:18:11.941Z,12.71
2023-04-25T23:20:39.993Z,12.66
2023-04-25T23:23:07.732Z,12.63
2023-04-25T23:25:39.944Z,12.57
2023-04-25T23:28:07.794Z,12.51
2023-04-25T23:30:35.509Z,12.51
2023-04-25T23:33:04.162Z,12.53
2023-04-25T23:35:36.201Z,12.53
2023-04-25T23:38:03.814Z,12.54
2023-04-25T23:40:31.981Z,12.48
2023-04-25T23:43:01.514Z,12.46
2023-04-25T23:45:29.351Z,12.45
2023-04-25T23:47:57.300Z,12.40
2023-04-25T23:50:24.837Z,12.38
2023-04-25T23:52:52.451Z,12.36
2023-04-25T23:55:20.048Z,12.26
2023-04-25T23:57:48.592Z,12.30
